Time;durP1;ratioP1;P1;durP2;ratioP2;P2;SDS_P1;SDS_P2;PMS_P1;PMS_P2;Temp;Humidity;BMP_temperature;BMP_pressure;BME280_temperature;BME280_humidity;BME280_pressure;Samples;Min_cycle;Max_cycle;Signal;HPM_P1;HPM_P2
2024/01/09 00:00:47;;;;;;;56.00;2.60;;;;;;;;;;5053753;28;20213;-76
2024/01/09 00:03:14;;;;;;;55.85;2.67;;;;;;;;;;5053837;28;20710;-73
2024/01/09 00:05:42;;;;;;;55.45;2.78;;;;;;;;;;5053570;28;20210;-76
2024/01/09 00:08:10;;;;;;;56.08;2.78;;;;;;;;;;5053650;28;20240;-76
2024/01/09 00:10:37;;;;;;;55.97;2.50;;;;;;;;;;5053590;28;20210;-77
2024/01/09 00:13:04;;;;;;;55.80;3.00;;;;;;;;;;5053847;28;20230;-76
2024/01/09 00:15:31;;;;;;;55.22;2.80;;;;;;;;;;5053756;28;20632;-76
2024/01/09 00:17:58;;;;;;;55.97;2.80;;;;;;;;;;5053522;28;20662;-73
2024/01/09 00:20:25;;;;;;;55.97;2.72;;;;;;;;;;5053572;28;20217;-75
2024/01/09 00:22:54;;;;;;;55.13;2.70;;;;;;;;;;5053326;28;20706;-74
2024/01/09 00:25:21;;;;;;;55.75;2.75;;;;;;;;;;5053724;28;20577;-73
2024/01/09 00:27:48;;;;;;;55.67;2.70;;;;;;;;;;5053471;28;20230;-74
2024/01/09 00:30:16;;;;;;;56.00;2.58;;;;;;;;;;5053589;28;20206;-73
2024/01/09 00:32:47;;;;;;;56.25;2.60;;;;;;;;;;5053159;28;20210;-73
2024/01/09 00:35:15;;;;;;;55.58;2.60;;;;;;;;;;5052927;28;20210;-73
2024/01/09 00:37:42;;;;;;;56.00;2.63;;;;;;;;;;5053403;28;20625;-73
2024/01/09 00:40:11;;;;;;;56.00;2.60;;;;;;;;;;5053368;28;20202;-73
2024/01/09 00:42:38;;;;;;;56.03;2.70;;;;;;;;;;5053040;28;20205;-74
2024/01/09 00:45:06;;;;;;;55.95;2.75;;;;;;;;;;5052952;28;20209;-74
2024/01/09 00:47:33;;;;;;;56.10;2.67;;;;;;;;;;5053004;28;20620;-74
2024/01/09 00:50:00;;;;;;;55.95;2.85;;;;;;;;;;5053227;28;20236;-74
2024/01/09 00:52:27;;;;;;;55.50;2.70;;;;;;;;;;5053169;28;20213;-74
2024/01/09 00:54:54;;;;;;;55.80;2.67;;;;;;;;;;5052833;28;20600;-74
2024/01/09 00:57:22;;;;;;;57.75;3.92;;;;;;;;;;5053012;28;20212;-74
2024/01/09 00:59:49;;;;;;;55.55;2.50;;;;;;;;;;5052721;28;20210;-76
2024/01/09 01:02:17;;;;;;;55.70;2.63;;;;;;;;;;5048561;28;20217;-74
2024/01/09 01:04:44;;;;;;;56.00;2.60;;;;;;;;;;5050625;28;20718;-75
2024/01/09 01:07:11;;;;;;;55.67;2.92;;;;;;;;;;5052388;28;20690;-73
2024/01/09 01:09:39;;;;;;;55.97;2.53;;;;;;;;;;5052585;28;20205;-74
2024/01/09 01:12:06;;;;;;;55.80;2.60;;;;;;;;;;5052629;28;20697;-74
2024/01/09 01:14:34;;;;;;;56.00;2.60;;;;;;;;;;5052381;28;20226;-73
2024/01/09 01:17:02;;;;;;;55.65;2.60;;;;;;;;;;5052173;28;20499;-74
2024/01/09 01:19:29;;;;;;;55.80;2.60;;;;;;;;;;5052674;28;20202;-75
2024/01/09 01:21:56;;;;;;;55.78;2.83;;;;;;;;;;5052632;28;20210;-74
2024/01/09 01:24:23;;;;;;;56.10;2.80;;;;;;;;;;5052292;28;20230;-74
2024/01/09 01:26:50;;;;;;;56.00;2.60;;;;;;;;;;5051782;28;20210;-74
2024/01/09 01:29:17;;;;;;;56.15;3.40;;;;;;;;;;5052184;28;20584;-75
2024/01/09 01:31:46;;;;;;;55.85;2.58;;;;;;;;;;5052223;28;20208;-76
2024/01/09 01:34:13;;;;;;;55.67;3.15;;;;;;;;;;5051719;28;20225;-75
2024/01/09 01:36:40;;;;;;;55.67;2.70;;;;;;;;;;5051957;28;20202;-74
2024/01/09 01:39:07;;;;;;;55.58;2.55;;;;;;;;;;5052015;28;20206;-74
2024/01/09 01:41:34;;;;;;;55.88;2.58;;;;;;;;;;5051906;28;20204;-75
2024/01/09 01:44:01;;;;;;;55.65;3.00;;;;;;;;;;5051786;28;20585;-75
2024/01/09 01:46:30;;;;;;;55.80;2.80;;;;;;;;;;5051928;28;20202;-75
2024/01/09 01:48:59;;;;;;;56.00;2.67;;;;;;;;;;5051864;28;20240;-75
2024/01/09 01:51:26;;;;;;;55.88;2.80;;;;;;;;;;5051830;28;20208;-74
2024/01/09 01:53:53;;;;;;;56.40;3.80;;;;;;;;;;5051738;28;20230;-74
2024/01/09 01:56:20;;;;;;;55.92;2.70;;;;;;;;;;5051500;28;20209;-74
2024/01/09 01:58:47;;;;;;;55.70;2.60;;;;;;;;;;5051429;28;20680;-75
2024/01/09 02:01:14;;;;;;;56.15;3.10;;;;;;;;;;5051885;28;20202;-74
2024/01/09 02:03:41;;;;;;;55.88;2.55;;;;;;;;;;5051584;28;20228;-75
2024/01/09 02:06:10;;;;;;;55.65;2.90;;;;;;;;;;5051357;28;20209;-75
2024/01/09 02:08:37;;;;;;;55.45;2.58;;;;;;;;;;5051830;28;20589;-75
2024/01/09 02:11:04;;;;;;;56.08;2.67;;;;;;;;;;5051371;28;20201;-74
2024/01/09 02:13:31;;;;;;;56.08;2.67;;;;;;;;;;5051485;28;20221;-75
2024/01/09 02:15:59;;;;;;;55.85;2.67;;;;;;;;;;5051058;28;20214;-74
2024/01/09 02:18:26;;;;;;;55.85;2.58;;;;;;;;;;5051317;28;20201;-75
2024/01/09 02:20:54;;;;;;;56.55;3.35;;;;;;;;;;5051555;28;20582;-75
2024/01/09 02:23:22;;;;;;;56.10;2.80;;;;;;;;;;5051045;28;20738;-75
2024/01/09 02:25:50;;;;;;;55.92;2.80;;;;;;;;;;5050847;28;20208;-76
2024/01/09 02:28:20;;;;;;;55.67;2.40;;;;;;;;;;5051481;28;20218;-75
2024/01/09 02:30:49;;;;;;;55.80;2.60;;;;;;;;;;5050785;28;20209;-75
2024/01/09 02:33:16;;;;;;;56.00;2.70;;;;;;;;;;5050484;28;20229;-75
2024/01/09 02:35:43;;;;;;;55.65;2.80;;;;;;;;;;5051051;28;20216;-75
2024/01/09 02:38:10;;;;;;;57.85;3.00;;;;;;;;;;5051159;28;20220;-75
2024/01/09 02:40:38;;;;;;;55.90;2.60;;;;;;;;;;5050863;28;20206;-75
2024/01/09 02:43:05;;;;;;;56.15;4.07;;;;;;;;;;5050888;28;20224;-75
2024/01/09 02:45:33;;;;;;;55.88;2.55;;;;;;;;;;5049819;28;20206;-75
2024/01/09 02:48:01;;;;;;;55.58;2.70;;;;;;;;;;5050887;28;20234;-76
2024/01/09 02:50:28;;;;;;;55.25;2.70;;;;;;;;;;5050742;28;20729;-75
2024/01/09 02:52:55;;;;;;;55.13;2.65;;;;;;;;;;5050712;28;20594;-76
2024/01/09 02:55:22;;;;;;;55.67;2.67;;;;;;;;;;5050635;28;20206;-75
2024/01/09 02:57:50;;;;;;;55.97;2.72;;;;;;;;;;5050714;28;20208;-76
2024/01/09 03:00:17;;;;;;;55.90;2.53;;;;;;;;;;5050607;28;20209;-75
2024/01/09 03:02:44;;;;;;;55.58;3.00;;;;;;;;;;5050031;28;20208;-75
2024/01/09 03:05:13;;;;;;;56.38;3.60;;;;;;;;;;5050598;28;20202;-75
2024/01/09 03:07:40;;;;;;;55.78;2.80;;;;;;;;;;5050508;28;20208;-75
2024/01/09 03:10:08;;;;;;;55.97;2.90;;;;;;;;;;5050712;28;20212;-74
2024/01/09 03:12:35;;;;;;;55.90;2.78;;;;;;;;;;5050565;28;20198;-75
2024/01/09 03:15:02;;;;;;;55.88;2.58;;;;;;;;;;5050334;28;20206;-76
2024/01/09 03:17:29;;;;;;;55.85;2.90;;;;;;;;;;5050554;28;20222;-75
2024/01/09 03:19:56;;;;;;;55.67;2.58;;;;;;;;;;5050293;28;20213;-76
2024/01/09 03:22:25;;;;;;;55.88;3.00;;;;;;;;;;5050471;28;20202;-75
2024/01/09 03:24:52;;;;;;;55.58;2.65;;;;;;;;;;5050056;28;20228;-75
2024/01/09 03:27:19;;;;;;;55.80;2.70;;;;;;;;;;5050460;28;20212;-75
2024/01/09 03:29:46;;;;;;;55.88;3.00;;;;;;;;;;5050603;28;20232;-75
2024/01/09 03:32:13;;;;;;;56.55;4.60;;;;;;;;;;5050481;28;20676;-75
2024/01/09 03:34:41;;;;;;;55.88;2.70;;;;;;;;;;5050412;28;20302;-75
2024/01/09 03:37:09;;;;;;;55.55;2.45;;;;;;;;;;5050438;28;20202;-75
2024/01/09 03:39:38;;;;;;;55.65;2.70;;;;;;;;;;5050382;28;20203;-76
2024/01/09 03:42:05;;;;;;;56.20;2.70;;;;;;;;;;5050115;28;20579;-76
2024/01/09 03:44:32;;;;;;;55.90;2.53;;;;;;;;;;5050339;28;20490;-75
2024/01/09 03:46:59;;;;;;;55.80;2.60;;;;;;;;;;5050097;28;20708;-75
2024/01/09 03:49:26;;;;;;;55.28;2.38;;;;;;;;;;5050701;28;20226;-75
2024/01/09 03:51:54;;;;;;;55.17;2.60;;;;;;;;;;5050324;28;20202;-75
2024/01/09 03:54:21;;;;;;;55.88;2.50;;;;;;;;;;5050127;28;20601;-76
2024/01/09 03:56:49;;;;;;;55.90;2.70;;;;;;;;;;5050483;28;20202;-76
2024/01/09 03:59:16;;;;;;;55.25;2.60;;;;;;;;;;5053883;28;20672;-75
2024/01/09 04:01:43;;;;;;;56.10;2.90;;;;;;;;;;5053918;28;20202;-76
2024/01/09 04:04:10;;;;;;;55.65;2.80;;;;;;;;;;5053249;28;20232;-75
2024/01/09 04:06:43;;;;;;;55.38;2.60;;;;;;;;;;5053722;28;20559;-75
2024/01/09 04:09:11;;;;;;;56.08;3.00;;;;;;;;;;5053508;28;20229;-75
2024/01/09 04:11:42;;;;;;;55.67;2.50;;;;;;;;;;5053549;28;20256;-75
2024/01/09 04:14:11;;;;;;;56.15;3.53;;;;;;;;;;5045385;28;20224;-76
2024/01/09 04:16:38;;;;;;;55.80;2.60;;;;;;;;;;5053464;28;20216;-75
2024/01/09 04:19:05;;;;;;;55.38;3.00;;;;;;;;;;5053397;28;20813;-75
2024/01/09 04:21:32;;;;;;;55.80;2.70;;;;;;;;;;5053399;28;20206;-76
2024/01/09 04:23:59;;;;;;;56.15;3.08;;;;;;;;;;5053529;28;20248;-75
2024/01/09 04:26:26;;;;;;;55.28;2.70;;;;;;;;;;5048497;28;20206;-75
2024/01/09 04:28:53;;;;;;;55.85;2.70;;;;;;;;;;5053175;28;20255;-75
2024/01/09 04:31:24;;;;;;;55.88;2.80;;;;;;;;;;5053403;28;20206;-75
2024/01/09 04:33:51;;;;;;;55.70;3.10;;;;;;;;;;5053006;28;20245;-76
2024/01/09 04:36:19;;;;;;;55.70;2.80;;;;;;;;;;5052956;28;20212;-75
2024/01/09 04:38:47;;;;;;;55.80;3.03;;;;;;;;;;5053569;28;20202;-76
2024/01/09 04:41:16;;;;;;;56.08;2.90;;;;;;;;;;5053144;28;20292;-75
2024/01/09 04:43:43;;;;;;;55.25;2.67;;;;;;;;;;5053119;28;20708;-75
2024/01/09 04:46:10;;;;;;;55.90;2.58;;;;;;;;;;5052797;28;20209;-76
2024/01/09 04:48:39;;;;;;;55.38;2.60;;;;;;;;;;5052977;28;20232;-75
2024/01/09 04:51:06;;;;;;;55.78;2.60;;;;;;;;;;5053055;28;20206;-76
2024/01/09 04:53:33;;;;;;;55.78;2.70;;;;;;;;;;5053041;28;20673;-75
2024/01/09 04:56:00;;;;;;;56.00;3.50;;;;;;;;;;5052869;28;20206;-75
2024/01/09 04:58:28;;;;;;;55.53;2.40;;;;;;;;;;5053009;28;20666;-75
2024/01/09 05:00:56;;;;;;;55.60;2.72;;;;;;;;;;5052739;28;20526;-75
2024/01/09 05:03:23;;;;;;;56.08;2.80;;;;;;;;;;5052270;28;20226;-75
2024/01/09 05:05:51;;;;;;;57.92;4.65;;;;;;;;;;5052131;28;20681;-75
2024/01/09 05:08:18;;;;;;;55.58;2.40;;;;;;;;;;5051804;28;20210;-75
2024/01/09 05:10:45;;;;;;;55.55;2.70;;;;;;;;;;5052485;28;20217;-75
2024/01/09 05:13:12;;;;;;;55.70;2.55;;;;;;;;;;5044429;28;20225;-75
2024/01/09 05:15:39;;;;;;;55.58;2.80;;;;;;;;;;5052226;28;20209;-75
2024/01/09 05:18:07;;;;;;;56.10;2.67;;;;;;;;;;5052381;28;20224;-75
2024/01/09 05:20:34;;;;;;;55.55;2.72;;;;;;;;;;5052682;28;20280;-75
2024/01/09 05:23:03;;;;;;;55.97;2.70;;;;;;;;;;5052462;28;20241;-75
2024/01/09 05:25:30;;;;;;;55.80;2.60;;;;;;;;;;5052155;28;20261;-75
2024/01/09 05:27:57;;;;;;;55.42;2.70;;;;;;;;;;5052200;28;20217;-75
2024/01/09 05:30:25;;;;;;;56.40;3.50;;;;;;;;;;5052357;28;20222;-76
2024/01/09 05:32:52;;;;;;;55.85;2.33;;;;;;;;;;5052398;28;20222;-74
2024/01/09 05:35:20;;;;;;;55.35;2.78;;;;;;;;;;5051931;28;20271;-75
2024/01/09 05:37:47;;;;;;;62.17;5.93;;;;;;;;;;5052296;28;20212;-75
2024/01/09 05:40:15;;;;;;;56.28;3.65;;;;;;;;;;5043799;28;20195;-74
2024/01/09 05:42:43;;;;;;;55.72;2.65;;;;;;;;;;5051940;28;20206;-75
2024/01/09 05:45:10;;;;;;;55.78;2.45;;;;;;;;;;5051911;28;20210;-74
2024/01/09 05:47:37;;;;;;;55.58;2.60;;;;;;;;;;5052101;28;20209;-74
2024/01/09 05:50:04;;;;;;;56.10;3.00;;;;;;;;;;5051785;28;20229;-74
2024/01/09 05:52:31;;;;;;;55.58;2.80;;;;;;;;;;5051951;28;20209;-74
2024/01/09 05:54:58;;;;;;;56.75;4.10;;;;;;;;;;5051696;28;20700;-74
2024/01/09 05:57:26;;;;;;;55.78;2.83;;;;;;;;;;5051718;28;20202;-76
2024/01/09 05:59:53;;;;;;;55.90;2.40;;;;;;;;;;5051984;28;20205;-75
2024/01/09 06:02:21;;;;;;;55.88;2.72;;;;;;;;;;5051592;28;20257;-76
2024/01/09 06:04:48;;;;;;;55.22;2.67;;;;;;;;;;5051491;28;20225;-75
2024/01/09 06:07:17;;;;;;;55.88;2.58;;;;;;;;;;5051927;28;20205;-75
2024/01/09 06:09:45;;;;;;;55.70;2.67;;;;;;;;;;5051581;28;20312;-75
2024/01/09 06:12:12;;;;;;;55.88;2.90;;;;;;;;;;5051890;28;20225;-75
2024/01/09 06:14:41;;;;;;;55.63;2.60;;;;;;;;;;5051550;28;20225;-74
2024/01/09 06:17:08;;;;;;;55.80;2.60;;;;;;;;;;5051433;28;20238;-76
2024/01/09 06:19:35;;;;;;;55.65;2.70;;;;;;;;;;5051605;28;20202;-75
2024/01/09 06:22:02;;;;;;;56.20;2.97;;;;;;;;;;5051255;28;20654;-76
2024/01/09 06:24:29;;;;;;;55.92;2.90;;;;;;;;;;5051139;28;20226;-76
2024/01/09 06:26:56;;;;;;;55.47;2.42;;;;;;;;;;5051439;28;20209;-76
2024/01/09 06:29:23;;;;;;;55.58;2.65;;;;;;;;;;5051067;28;20224;-76
2024/01/09 06:31:52;;;;;;;55.40;2.78;;;;;;;;;;5051256;28;20202;-75
2024/01/09 06:34:19;;;;;;;55.78;2.42;;;;;;;;;;5043520;28;20622;-76
2024/01/09 06:36:46;;;;;;;55.55;2.40;;;;;;;;;;5051116;28;20202;-74
2024/01/09 06:39:13;;;;;;;55.60;2.55;;;;;;;;;;5050828;28;20269;-74
2024/01/09 06:41:40;;;;;;;56.00;2.50;;;;;;;;;;5051425;28;20206;-76
2024/01/09 06:44:07;;;;;;;55.47;2.70;;;;;;;;;;5051104;28;20222;-75
2024/01/09 06:46:34;;;;;;;56.00;2.60;;;;;;;;;;5050943;28;20654;-76
2024/01/09 06:49:03;;;;;;;56.38;3.78;;;;;;;;;;5050917;28;20222;-75
2024/01/09 06:51:31;;;;;;;55.30;2.50;;;;;;;;;;5050981;28;20208;-76
2024/01/09 06:53:58;;;;;;;56.50;3.10;;;;;;;;;;5050704;28;20229;-76
2024/01/09 06:56:26;;;;;;;56.00;2.67;;;;;;;;;;5051158;28;20202;-76
2024/01/09 06:58:53;;;;;;;55.80;2.53;;;;;;;;;;5051527;28;20206;-75
2024/01/09 07:01:20;;;;;;;56.10;2.63;;;;;;;;;;5052431;28;20198;-75
2024/01/09 07:03:47;;;;;;;55.75;2.58;;;;;;;;;;5059420;28;20218;-74
2024/01/09 07:06:16;;;;;;;55.60;2.60;;;;;;;;;;5063587;28;20265;-74
2024/01/09 07:08:43;;;;;;;55.90;2.60;;;;;;;;;;5064723;28;20251;-74
2024/01/09 07:11:10;;;;;;;55.22;2.50;;;;;;;;;;5065147;28;20212;-75
2024/01/09 07:13:37;;;;;;;56.08;3.40;;;;;;;;;;5065229;28;20221;-75
2024/01/09 07:16:04;;;;;;;56.88;3.20;;;;;;;;;;5058569;28;20209;-75
2024/01/09 07:18:31;;;;;;;55.45;2.60;;;;;;;;;;5051814;28;20212;-74
2024/01/09 07:20:59;;;;;;;55.75;2.53;;;;;;;;;;5052282;28;20206;-75
2024/01/09 07:23:28;;;;;;;55.75;2.50;;;;;;;;;;5054959;28;20690;-73
2024/01/09 07:25:55;;;;;;;55.45;2.47;;;;;;;;;;5062803;28;20210;-74
2024/01/09 07:28:22;;;;;;;55.75;2.80;;;;;;;;;;5056975;28;20206;-74
2024/01/09 07:30:52;;;;;;;55.47;3.05;;;;;;;;;;5053181;28;20236;-75
2024/01/09 07:33:19;;;;;;;55.92;2.58;;;;;;;;;;5053546;28;20631;-75
2024/01/09 07:35:46;;;;;;;55.67;2.47;;;;;;;;;;5054615;28;20204;-75
2024/01/09 07:38:13;;;;;;;55.78;2.70;;;;;;;;;;5054420;28;20210;-75
2024/01/09 07:40:41;;;;;;;55.67;2.40;;;;;;;;;;5054390;28;20224;-74
2024/01/09 07:43:08;;;;;;;55.80;2.70;;;;;;;;;;5054425;28;20232;-74
2024/01/09 07:45:36;;;;;;;55.80;2.55;;;;;;;;;;5054089;28;20208;-74
2024/01/09 07:48:04;;;;;;;55.70;2.70;;;;;;;;;;5054591;28;20273;-75
2024/01/09 07:50:32;;;;;;;55.67;2.70;;;;;;;;;;5054386;28;20232;-75
2024/01/09 07:52:59;;;;;;;55.67;2.60;;;;;;;;;;5053966;28;20245;-75
2024/01/09 07:55:26;;;;;;;55.63;2.60;;;;;;;;;;5054135;28;20293;-75
2024/01/09 07:57:55;;;;;;;55.40;2.60;;;;;;;;;;5054213;28;20202;-76
2024/01/09 08:00:22;;;;;;;56.15;2.60;;;;;;;;;;5054058;28;20655;-75
2024/01/09 08:02:49;;;;;;;55.60;2.70;;;;;;;;;;5054309;28;20861;-74
2024/01/09 08:05:16;;;;;;;55.03;2.50;;;;;;;;;;5053826;28;20199;-75
2024/01/09 08:07:43;;;;;;;55.47;2.55;;;;;;;;;;5053985;28;20674;-75
2024/01/09 08:10:11;;;;;;;55.78;3.33;;;;;;;;;;5053903;28;20233;-75
2024/01/09 08:12:38;;;;;;;55.88;2.55;;;;;;;;;;5053799;28;20297;-75
2024/01/09 08:15:07;;;;;;;56.28;3.28;;;;;;;;;;5053650;28;20313;-75
2024/01/09 08:17:34;;;;;;;55.83;2.80;;;;;;;;;;5053680;28;20224;-75
2024/01/09 08:20:03;;;;;;;55.58;2.60;;;;;;;;;;5053976;28;20202;-76
2024/01/09 08:22:30;;;;;;;55.75;3.00;;;;;;;;;;5053825;28;20237;-75
2024/01/09 08:24:57;;;;;;;57.40;4.90;;;;;;;;;;5053368;28;20202;-74
2024/01/09 08:27:24;;;;;;;55.58;2.80;;;;;;;;;;5053568;28;20205;-75
2024/01/09 08:29:52;;;;;;;55.95;2.53;;;;;;;;;;5053739;28;20268;-75
2024/01/09 08:32:22;;;;;;;55.47;2.60;;;;;;;;;;5053620;28;20206;-75
2024/01/09 08:34:49;;;;;;;55.88;2.80;;;;;;;;;;5053231;28;20230;-76
2024/01/09 08:37:17;;;;;;;55.90;2.85;;;;;;;;;;5053418;28;20688;-75
2024/01/09 08:39:44;;;;;;;55.20;2.50;;;;;;;;;;5053331;28;20286;-75
2024/01/09 08:42:11;;;;;;;56.10;2.60;;;;;;;;;;5053482;28;20565;-75
2024/01/09 08:44:38;;;;;;;55.60;2.80;;;;;;;;;;5051970;28;20225;-75
2024/01/09 08:47:05;;;;;;;55.38;2.50;;;;;;;;;;5052992;28;20209;-75
2024/01/09 08:49:34;;;;;;;56.58;3.40;;;;;;;;;;5053199;28;20229;-74
2024/01/09 08:52:01;;;;;;;55.55;2.50;;;;;;;;;;5052962;28;20577;-75
2024/01/09 08:54:28;;;;;;;55.65;2.85;;;;;;;;;;5052734;28;20221;-74
2024/01/09 08:56:55;;;;;;;55.65;2.97;;;;;;;;;;5053041;28;20673;-75
2024/01/09 08:59:22;;;;;;;55.67;2.50;;;;;;;;;;5053016;28;20209;-74
2024/01/09 09:01:50;;;;;;;55.95;2.58;;;;;;;;;;5052808;28;20209;-75
2024/01/09 09:04:17;;;;;;;55.72;2.83;;;;;;;;;;5052883;28;20227;-75
2024/01/09 09:06:46;;;;;;;55.28;2.42;;;;;;;;;;5052638;28;20692;-75
2024/01/09 09:09:14;;;;;;;56.92;4.07;;;;;;;;;;5053047;28;20206;-75
2024/01/09 09:11:41;;;;;;;56.00;3.00;;;;;;;;;;5052946;28;20289;-73
2024/01/09 09:14:08;;;;;;;55.80;2.70;;;;;;;;;;5052626;28;20226;-74
2024/01/09 09:16:36;;;;;;;55.90;2.60;;;;;;;;;;5052331;28;20581;-75
2024/01/09 09:19:03;;;;;;;55.78;2.80;;;;;;;;;;5052586;28;20679;-74
2024/01/09 09:21:30;;;;;;;57.05;4.95;;;;;;;;;;5052683;28;20201;-75
2024/01/09 09:23:58;;;;;;;55.97;2.60;;;;;;;;;;5052580;28;20226;-75
2024/01/09 09:26:27;;;;;;;55.85;2.80;;;;;;;;;;5052763;28;20733;-75
2024/01/09 09:28:55;;;;;;;55.80;2.70;;;;;;;;;;5052838;28;20213;-74
2024/01/09 09:31:22;;;;;;;56.08;3.13;;;;;;;;;;5052374;28;20234;-74
2024/01/09 09:33:49;;;;;;;55.47;2.67;;;;;;;;;;5052153;28;20221;-74
2024/01/09 09:36:16;;;;;;;56.00;2.97;;;;;;;;;;5052119;28;20210;-74
2024/01/09 09:38:43;;;;;;;55.88;2.50;;;;;;;;;;5052356;28;20210;-74
2024/01/09 09:41:16;;;;;;;56.20;3.53;;;;;;;;;;5052229;28;20213;-74
2024/01/09 09:43:45;;;;;;;55.90;2.70;;;;;;;;;;5052070;28;20229;-73
2024/01/09 09:46:17;;;;;;;55.88;2.92;;;;;;;;;;5051774;28;20236;-74
2024/01/09 09:48:44;;;;;;;55.97;2.55;;;;;;;;;;5051979;28;20678;-74
2024/01/09 09:51:11;;;;;;;56.50;3.25;;;;;;;;;;5052043;28;20240;-74
2024/01/09 09:53:38;;;;;;;58.97;4.35;;;;;;;;;;5051799;28;20792;-74
2024/01/09 09:56:06;;;;;;;56.63;3.92;;;;;;;;;;5051214;28;20238;-74
2024/01/09 09:58:34;;;;;;;55.97;2.75;;;;;;;;;;5051998;28;20669;-74
2024/01/09 10:01:01;;;;;;;56.00;2.90;;;;;;;;;;5051513;28;20209;-75
2024/01/09 10:03:32;;;;;;;56.08;2.90;;;;;;;;;;5051849;28;20320;-74
2024/01/09 10:06:01;;;;;;;56.10;3.13;;;;;;;;;;5051712;28;20592;-74
2024/01/09 10:08:30;;;;;;;56.10;3.08;;;;;;;;;;5051688;28;20207;-74
2024/01/09 10:10:57;;;;;;;56.28;3.05;;;;;;;;;;5051614;28;20223;-74
2024/01/09 10:13:24;;;;;;;55.78;2.80;;;;;;;;;;5051394;28;20735;-75
2024/01/09 10:15:59;;;;;;;55.97;2.88;;;;;;;;;;5051385;28;20261;-74
2024/01/09 10:18:29;;;;;;;60.97;3.97;;;;;;;;;;5051347;28;20238;-74
2024/01/09 10:20:57;;;;;;;56.13;2.93;;;;;;;;;;5051354;28;20457;-75
2024/01/09 10:23:24;;;;;;;56.27;2.97;;;;;;;;;;5051296;28;20849;-74
2024/01/09 10:25:51;;;;;;;55.83;2.20;;;;;;;;;;5051197;28;20822;-73
2024/01/09 10:28:18;;;;;;;55.87;2.33;;;;;;;;;;5051459;28;20825;-74
2024/01/09 10:30:45;;;;;;;55.97;2.40;;;;;;;;;;5051424;28;20577;-73
2024/01/09 10:33:14;;;;;;;56.27;2.27;;;;;;;;;;5051161;28;20492;-73
2024/01/09 10:35:42;;;;;;;55.80;2.17;;;;;;;;;;5051149;28;20459;-73
2024/01/09 10:38:09;;;;;;;58.20;2.70;;;;;;;;;;5051276;28;20814;-74
2024/01/09 10:40:36;;;;;;;55.97;1.97;;;;;;;;;;5050947;28;20446;-73
2024/01/09 10:43:03;;;;;;;56.27;2.60;;;;;;;;;;5051002;28;20481;-73
2024/01/09 10:45:31;;;;;;;55.87;2.20;;;;;;;;;;5051185;28;20823;-73
2024/01/09 10:47:59;;;;;;;55.57;2.40;;;;;;;;;;5050913;28;20451;-73
2024/01/09 10:50:27;;;;;;;55.97;2.10;;;;;;;;;;5050818;28;20490;-74
2024/01/09 10:52:54;;;;;;;55.20;2.43;;;;;;;;;;5051056;28;20471;-73
2024/01/09 10:55:22;;;;;;;56.57;3.03;;;;;;;;;;5050484;28;20453;-74
2024/01/09 10:57:50;;;;;;;56.10;2.30;;;;;;;;;;5051082;28;20823;-73
2024/01/09 11:00:17;;;;;;;59.07;3.47;;;;;;;;;;5050951;28;20722;-74
2024/01/09 11:02:44;;;;;;;60.13;3.23;;;;;;;;;;5050983;28;20461;-74
2024/01/09 11:05:12;;;;;;;56.10;2.73;;;;;;;;;;5050534;28;20453;-74
2024/01/09 11:07:43;;;;;;;55.43;2.40;;;;;;;;;;5052691;28;20463;-75
2024/01/09 11:10:13;;;;;;;56.07;2.87;;;;;;;;;;5055213;28;20520;-74
2024/01/09 11:12:42;;;;;;;56.83;2.50;;;;;;;;;;5055046;28;20822;-74
2024/01/09 11:15:11;;;;;;;55.57;2.10;;;;;;;;;;5054596;28;20822;-74
2024/01/09 11:17:39;;;;;;;56.10;2.30;;;;;;;;;;5054883;28;20463;-74
2024/01/09 11:20:07;;;;;;;56.67;2.40;;;;;;;;;;5055049;28;20826;-74
2024/01/09 11:22:36;;;;;;;56.00;2.27;;;;;;;;;;5054674;28;20459;-74
2024/01/09 11:25:05;;;;;;;55.80;2.10;;;;;;;;;;5054687;28;20479;-74
2024/01/09 11:27:41;;;;;;;57.30;2.80;;;;;;;;;;5054830;28;20466;-73
2024/01/09 11:30:09;;;;;;;56.07;2.33;;;;;;;;;;5054544;28;20460;-74
2024/01/09 11:32:37;;;;;;;56.20;2.17;;;;;;;;;;5054669;28;20528;-72
2024/01/09 11:35:11;;;;;;;56.57;2.77;;;;;;;;;;5054263;28;20536;-72
2024/01/09 11:37:39;;;;;;;56.57;2.60;;;;;;;;;;5054850;28;20457;-72
2024/01/09 11:40:10;;;;;;;55.67;2.10;;;;;;;;;;5054657;28;20452;-72
2024/01/09 11:42:38;;;;;;;55.90;2.77;;;;;;;;;;5054608;28;20957;-73
2024/01/09 11:45:07;;;;;;;56.00;2.33;;;;;;;;;;5053979;28;20461;-73
2024/01/09 11:47:37;;;;;;;56.57;2.40;;;;;;;;;;5054558;28;20460;-73
2024/01/09 11:50:06;;;;;;;55.57;2.27;;;;;;;;;;5054658;28;20872;-73
2024/01/09 11:52:33;;;;;;;66.13;2.30;;;;;;;;;;5054316;28;20881;-73
2024/01/09 11:55:00;;;;;;;56.03;2.40;;;;;;;;;;5053890;28;20933;-73
2024/01/09 11:57:29;;;;;;;56.70;2.93;;;;;;;;;;5054000;28;20468;-73
2024/01/09 11:59:56;;;;;;;56.17;2.40;;;;;;;;;;5054223;28;20981;-73
2024/01/09 12:02:23;;;;;;;57.50;4.00;;;;;;;;;;5054124;28;20447;-73
2024/01/09 12:04:52;;;;;;;57.37;3.60;;;;;;;;;;5053982;28;20486;-75
2024/01/09 12:07:19;;;;;;;56.97;3.07;;;;;;;;;;5054260;28;20491;-73
2024/01/09 12:09:48;;;;;;;56.30;2.37;;;;;;;;;;5054258;28;20451;-73
2024/01/09 12:12:23;;;;;;;57.10;3.30;;;;;;;;;;5054161;28;20491;-73
2024/01/09 12:14:55;;;;;;;56.67;2.97;;;;;;;;;;5053953;28;20469;-77
2024/01/09 12:17:23;;;;;;;56.80;2.70;;;;;;;;;;5053949;28;20494;-72
2024/01/09 12:19:53;;;;;;;56.57;3.00;;;;;;;;;;5053697;28;20940;-73
2024/01/09 12:22:21;;;;;;;56.47;2.70;;;;;;;;;;5054041;28;20831;-73
2024/01/09 12:24:48;;;;;;;56.17;2.43;;;;;;;;;;5053906;28;20766;-73
2024/01/09 12:27:16;;;;;;;56.20;2.27;;;;;;;;;;5054512;28;20473;-72
2024/01/09 12:29:44;;;;;;;59.50;2.80;;;;;;;;;;5055016;28;20454;-73
2024/01/09 12:32:12;;;;;;;58.37;2.27;;;;;;;;;;5054614;28;20487;-73
2024/01/09 12:34:40;;;;;;;55.70;2.27;;;;;;;;;;5054072;28;20478;-73
2024/01/09 12:37:08;;;;;;;58.47;3.37;;;;;;;;;;5053587;28;20455;-73
2024/01/09 12:39:36;;;;;;;60.67;2.43;;;;;;;;;;5053256;28;20483;-73
2024/01/09 12:42:06;;;;;;;56.27;2.47;;;;;;;;;;5053284;28;20585;-73
2024/01/09 12:44:33;;;;;;;56.90;2.97;;;;;;;;;;5052845;28;20478;-73
2024/01/09 12:47:02;;;;;;;56.10;2.60;;;;;;;;;;5052882;28;20455;-74
2024/01/09 12:49:30;;;;;;;56.80;2.57;;;;;;;;;;5053044;28;20442;-74
2024/01/09 12:51:57;;;;;;;56.57;3.50;;;;;;;;;;5052904;28;20508;-74
2024/01/09 12:54:24;;;;;;;56.27;3.07;;;;;;;;;;5053080;28;20853;-74
2024/01/09 12:56:52;;;;;;;57.87;3.40;;;;;;;;;;5052938;28;20451;-73
2024/01/09 12:59:22;;;;;;;58.17;3.43;;;;;;;;;;5053074;28;20477;-75
2024/01/09 13:01:49;;;;;;;56.73;2.53;;;;;;;;;;5052714;28;20667;-74
2024/01/09 13:04:16;;;;;;;56.50;3.43;;;;;;;;;;5052661;28;20467;-73
2024/01/09 13:06:45;;;;;;;55.77;2.10;;;;;;;;;;5052804;28;20451;-73
2024/01/09 13:09:12;;;;;;;57.37;2.97;;;;;;;;;;5052620;28;20973;-73
2024/01/09 13:11:42;;;;;;;56.63;3.00;;;;;;;;;;5052871;28;20494;-73
2024/01/09 13:14:09;;;;;;;56.00;2.80;;;;;;;;;;5052833;28;20589;-72
2024/01/09 13:16:36;;;;;;;55.70;2.40;;;;;;;;;;5044244;28;20453;-74
2024/01/09 13:19:03;;;;;;;56.97;2.43;;;;;;;;;;5052562;28;20460;-73
2024/01/09 13:21:30;;;;;;;55.53;1.90;;;;;;;;;;5052703;28;20445;-74
2024/01/09 13:23:58;;;;;;;55.17;2.00;;;;;;;;;;5052618;28;20468;-73
2024/01/09 13:26:27;;;;;;;56.83;2.40;;;;;;;;;;5052348;28;20453;-74
2024/01/09 13:28:54;;;;;;;60.50;3.50;;;;;;;;;;5052567;28;20511;-74
2024/01/09 13:31:22;;;;;;;55.40;2.63;;;;;;;;;;5054603;28;20492;-75
2024/01/09 13:33:49;;;;;;;55.87;2.63;;;;;;;;;;5060038;28;20466;-74
2024/01/09 13:36:18;;;;;;;56.00;2.27;;;;;;;;;;5059968;28;20463;-75
2024/01/09 13:38:45;;;;;;;56.13;2.37;;;;;;;;;;5062123;28;20476;-75
2024/01/09 13:41:15;;;;;;;56.10;2.47;;;;;;;;;;5057777;28;20448;-74
2024/01/09 13:43:42;;;;;;;58.47;4.23;;;;;;;;;;5051941;28;20526;-74
2024/01/09 13:46:11;;;;;;;56.63;2.57;;;;;;;;;;5051737;28;20460;-73
2024/01/09 13:48:40;;;;;;;56.07;2.53;;;;;;;;;;5044176;28;20452;-74
2024/01/09 13:51:07;;;;;;;56.10;2.67;;;;;;;;;;5051688;28;21032;-74
2024/01/09 13:53:35;;;;;;;55.77;2.27;;;;;;;;;;5051630;28;20473;-74
2024/01/09 13:56:03;;;;;;;57.40;3.33;;;;;;;;;;5051709;28;20442;-73
2024/01/09 13:58:31;;;;;;;56.10;2.67;;;;;;;;;;5051628;28;20552;-75
2024/01/09 14:00:59;;;;;;;57.03;2.80;;;;;;;;;;5051941;28;20463;-74
2024/01/09 14:03:28;;;;;;;57.23;4.63;;;;;;;;;;5051599;28;20482;-74
2024/01/09 14:05:55;;;;;;;56.87;3.90;;;;;;;;;;5051641;28;20459;-74
2024/01/09 14:08:23;;;;;;;56.10;3.03;;;;;;;;;;5051800;28;20458;-74
2024/01/09 14:10:50;;;;;;;56.43;2.67;;;;;;;;;;5051464;28;20451;-74
2024/01/09 14:13:17;;;;;;;55.77;3.27;;;;;;;;;;5051093;28;20494;-73
2024/01/09 14:15:46;;;;;;;55.00;2.10;;;;;;;;;;5051360;28;20448;-74
2024/01/09 14:18:13;;;;;;;55.87;2.30;;;;;;;;;;5051815;28;20467;-74
2024/01/09 14:20:40;;;;;;;56.07;2.40;;;;;;;;;;5051724;28;20458;-74
2024/01/09 14:23:07;;;;;;;55.80;2.43;;;;;;;;;;5051300;28;20468;-74
2024/01/09 14:25:35;;;;;;;55.47;2.20;;;;;;;;;;5051080;28;20451;-75
2024/01/09 14:28:02;;;;;;;56.10;2.80;;;;;;;;;;5051372;28;20943;-74
2024/01/09 14:30:29;;;;;;;55.07;1.90;;;;;;;;;;5051539;28;20517;-75
2024/01/09 14:32:57;;;;;;;55.83;2.07;;;;;;;;;;5051000;28;20496;-73